createdAt,value
2023-05-23T00:00:38.347Z,98325.28
2023-05-23T00:03:11.152Z,98316.38
2023-05-23T00:05:43.758Z,98319.22
2023-05-23T00:08:16.286Z,98324.03
2023-05-23T00:10:48.648Z,98326.69
2023-05-23T00:13:20.638Z,98326.72
2023-05-23T00:15:53.244Z,98329.06
2023-05-23T00:18:25.602Z,98326.50
2023-05-23T00:20:59.381Z,98322.72
2023-05-23T00:23:33.856Z,98319.88
2023-05-23T00:26:06.530Z,98321.44
2023-05-23T00:28:38.822Z,98320.44
2023-05-23T00:31:11.360Z,98320.34
2023-05-23T00:33:43.317Z,98324.34
2023-05-23T00:36:15.856Z,98318.50
2023-05-23T00:38:48.149Z,98321.16
2023-05-23T00:41:21.317Z,98318.59
2023-05-23T00:43:53.331Z,98323.25
2023-05-23T00:46:27.088Z,98318.66
2023-05-23T00:48:59.210Z,98325.59
2023-05-23T00:51:32.164Z,98327.59
2023-05-23T00:54:06.156Z,98335.72
2023-05-23T00:56:39.909Z,98335.19
2023-05-23T00:59:12.824Z,98331.25
2023-05-23T01:01:47.579Z,98336.47
2023-05-23T01:04:20.232Z,98344.03
2023-05-23T01:06:57.309Z,98342.53
2023-05-23T01:09:30.099Z,98341.59
2023-05-23T01:12:17.635Z,98342.41
2023-05-23T01:15:02.431Z,98340.13
2023-05-23T01:18:14.720Z,98337.66
2023-05-23T01:20:54.735Z,98344.69
2023-05-23T01:24:06.093Z,98346.38
2023-05-23T01:27:08.589Z,98334.41
2023-05-23T01:29:47.408Z,98338.06
2023-05-23T01:32:22.943Z,98338.66
2023-05-23T01:34:56.175Z,98335.72
2023-05-23T01:37:29.784Z,98343.03
2023-05-23T01:40:02.568Z,98348.91
2023-05-23T01:42:34.595Z,98340.66
2023-05-23T01:45:08.539Z,98339.84
2023-05-23T01:47:41.851Z,98346.28
2023-05-23T01:50:21.286Z,98341.09
2023-05-23T01:52:54.724Z,98338.50
2023-05-23T01:55:28.214Z,98334.34
2023-05-23T01:58:01.834Z,98342.34
2023-05-23T02:00:35.140Z,98329.91
2023-05-23T02:03:08.492Z,98341.78
2023-05-23T02:05:41.634Z,98338.50
2023-05-23T02:08:14.693Z,98338.69
2023-05-23T02:10:46.623Z,98346.00
2023-05-23T02:13:18.785Z,98333.19
2023-05-23T02:15:51.635Z,98335.38
2023-05-23T02:18:26.256Z,98335.34
2023-05-23T02:20:59.034Z,98337.00
2023-05-23T02:23:31.223Z,98348.19
2023-05-23T02:26:04.174Z,98331.69
2023-05-23T02:28:36.544Z,98332.41
2023-05-23T02:31:08.927Z,98325.75
2023-05-23T02:33:41.332Z,98328.44
2023-05-23T02:36:13.919Z,98341.28
2023-05-23T02:38:45.850Z,98337.06
2023-05-23T02:41:18.609Z,98341.56
2023-05-23T02:43:50.571Z,98339.31
2023-05-23T02:46:24.018Z,98336.94
2023-05-23T02:48:56.117Z,98340.38
2023-05-23T02:51:31.208Z,98347.59
2023-05-23T02:54:03.916Z,98348.00
2023-05-23T02:59:35.785Z,98343.78
2023-05-23T03:02:08.558Z,98343.88
2023-05-23T03:04:40.998Z,98339.06
2023-05-23T03:07:24.516Z,98336.75
2023-05-23T03:10:01.317Z,98341.81
2023-05-23T03:12:34.213Z,98340.38
2023-05-23T03:15:07.624Z,98347.78
2023-05-23T03:17:44.660Z,98349.31
2023-05-23T03:20:17.259Z,98344.66
2023-05-23T03:22:49.453Z,98355.22
2023-05-23T03:25:22.401Z,98355.22
2023-05-23T03:27:54.564Z,98346.16
2023-05-23T03:30:27.761Z,98346.59
2023-05-23T03:33:00.026Z,98351.31
2023-05-23T03:35:34.812Z,98357.19
2023-05-23T03:38:08.124Z,98356.53
2023-05-23T03:40:40.240Z,98360.13
2023-05-23T03:46:06.528Z,98362.34
2023-05-23T03:48:39.531Z,98360.22
2023-05-23T03:51:14.701Z,98361.28
2023-05-23T03:53:47.810Z,98360.13
2023-05-23T03:56:20.360Z,98362.59
2023-05-23T03:58:53.356Z,98353.69
2023-05-23T04:01:25.488Z,98358.66
2023-05-23T04:03:58.617Z,98360.38
2023-05-23T04:06:32.680Z,98368.50
2023-05-23T04:09:06.668Z,98371.69
2023-05-23T04:11:44.375Z,98372.91
2023-05-23T04:14:17.526Z,98372.25
2023-05-23T04:16:50.658Z,98377.16
2023-05-23T04:19:23.421Z,98377.56
2023-05-23T04:21:59.466Z,98385.38
2023-05-23T04:24:31.817Z,98376.63
2023-05-23T04:27:05.861Z,98371.56
2023-05-23T04:29:38.254Z,98371.09
2023-05-23T04:32:11.769Z,98383.50
2023-05-23T04:34:44.322Z,98380.19
2023-05-23T04:37:17.811Z,98379.16
2023-05-23T04:39:49.924Z,98386.50
2023-05-23T04:42:52.157Z,98378.00
2023-05-23T04:45:36.796Z,98385.13
2023-05-23T04:48:21.746Z,98391.78
2023-05-23T04:50:56.570Z,98398.34
2023-05-23T04:53:28.775Z,98393.00
2023-05-23T04:56:03.025Z,98398.78
2023-05-23T04:58:37.802Z,98403.97
2023-05-23T05:01:14.001Z,98404.44
2023-05-23T05:03:47.938Z,98395.66
2023-05-23T05:06:21.727Z,98397.47
2023-05-23T05:08:54.363Z,98400.22
2023-05-23T05:11:27.841Z,98400.00
2023-05-23T05:14:00.451Z,98402.69
2023-05-23T05:16:36.899Z,98405.16
2023-05-23T05:19:09.839Z,98409.63
2023-05-23T05:21:41.912Z,98410.56
2023-05-23T05:24:16.055Z,98414.13
2023-05-23T05:26:48.545Z,98411.47
2023-05-23T05:29:24.780Z,98409.84
2023-05-23T05:31:57.240Z,98408.84
2023-05-23T05:34:31.420Z,98416.03
2023-05-23T05:37:04.836Z,98410.75
2023-05-23T05:40:06.140Z,98419.47
2023-05-23T05:42:40.437Z,98422.34
2023-05-23T05:45:12.745Z,98418.72
2023-05-23T05:47:47.667Z,98423.50
2023-05-23T05:50:20.405Z,98429.41
2023-05-23T05:52:54.886Z,98427.56
2023-05-23T05:55:27.619Z,98428.38
2023-05-23T06:01:00.994Z,98431.00
2023-05-23T06:03:35.131Z,98440.81
2023-05-23T06:06:08.914Z,98443.28
2023-05-23T06:08:44.505Z,98442.97
2023-05-23T06:11:21.098Z,98442.06
2023-05-23T06:13:54.766Z,98445.50
2023-05-23T06:16:29.985Z,98438.56
2023-05-23T06:19:02.697Z,98447.69
2023-05-23T06:21:36.530Z,98445.00
2023-05-23T06:27:05.241Z,98449.53
2023-05-23T06:29:40.678Z,98443.19
2023-05-23T06:32:12.757Z,98446.63
2023-05-23T06:34:48.640Z,98451.16
2023-05-23T06:37:20.850Z,98444.09
2023-05-23T06:39:54.733Z,98447.50
2023-05-23T06:42:27.326Z,98447.41
2023-05-23T06:45:23.520Z,98448.13
2023-05-23T06:47:55.443Z,98455.06
2023-05-23T06:50:28.621Z,98452.00
2023-05-23T06:53:01.687Z,98455.81
2023-05-23T06:55:33.972Z,98467.59
2023-05-23T06:58:27.277Z,98457.00
2023-05-23T07:01:02.156Z,98465.66
2023-05-23T07:03:41.658Z,98465.47
2023-05-23T07:06:14.198Z,98462.06
2023-05-23T07:08:47.172Z,98463.63
2023-05-23T07:11:22.239Z,98463.72
2023-05-23T07:14:01.260Z,98462.75
2023-05-23T07:16:46.137Z,98465.22
2023-05-23T07:19:18.839Z,98472.53
2023-05-23T07:21:57.462Z,98472.56
2023-05-23T07:24:30.139Z,98464.75
2023-05-23T07:27:02.977Z,98469.25
2023-05-23T07:29:35.387Z,98467.38
2023-05-23T07:32:08.244Z,98470.81
2023-05-23T07:34:41.220Z,98471.47
2023-05-23T07:37:14.325Z,98476.28
2023-05-23T07:39:49.076Z,98476.38
2023-05-23T07:42:21.744Z,98477.53
2023-05-23T07:44:54.455Z,98476.78
2023-05-23T07:47:27.969Z,98467.91
2023-05-23T07:50:02.252Z,98462.09
2023-05-23T07:52:36.628Z,98458.50
2023-05-23T07:55:10.985Z,98456.16
2023-05-23T07:57:44.061Z,98465.84
2023-05-23T08:00:17.588Z,98462.53
2023-05-23T08:02:50.590Z,98464.56
2023-05-23T08:05:29.186Z,98460.06
2023-05-23T08:08:03.219Z,98467.75
2023-05-23T08:10:36.257Z,98469.28
2023-05-23T08:13:14.685Z,98470.50
2023-05-23T08:16:04.779Z,98472.06
2023-05-23T08:18:38.608Z,98474.47
2023-05-23T08:21:11.656Z,98478.31
2023-05-23T08:23:44.428Z,98480.00
2023-05-23T08:26:16.705Z,98478.38
2023-05-23T08:28:52.817Z,98474.50
2023-05-23T08:31:27.890Z,98484.19
2023-05-23T08:34:00.451Z,98486.22
2023-05-23T08:36:36.716Z,98490.38
2023-05-23T08:39:11.931Z,98491.06
2023-05-23T08:41:56.129Z,98486.97
2023-05-23T08:44:28.364Z,98499.09
2023-05-23T08:47:06.177Z,98493.81
2023-05-23T08:49:56.556Z,98494.09
2023-05-23T08:52:34.199Z,98492.72
2023-05-23T08:55:08.733Z,98498.25
2023-05-23T08:57:44.128Z,98489.56
2023-05-23T09:00:35.258Z,98491.78
2023-05-23T09:03:10.083Z,98493.72
2023-05-23T09:05:54.966Z,98499.34
2023-05-23T09:08:28.750Z,98504.38
2023-05-23T09:11:06.080Z,98507.50
2023-05-23T09:13:42.686Z,98502.41
2023-05-23T09:16:19.515Z,98499.13
2023-05-23T09:18:58.854Z,98492.03
2023-05-23T09:21:34.396Z,98502.06
2023-05-23T09:24:12.654Z,98501.50
2023-05-23T09:26:48.708Z,98495.41
2023-05-23T09:29:21.696Z,98500.31
2023-05-23T09:32:06.459Z,98496.97
2023-05-23T09:35:00.418Z,98500.63
2023-05-23T09:37:39.599Z,98500.13
2023-05-23T09:40:14.961Z,98503.22
2023-05-23T09:42:54.749Z,98505.19
2023-05-23T09:45:31.300Z,98504.84
2023-05-23T09:48:14.445Z,98504.03
2023-05-23T09:50:51.364Z,98503.81
2023-05-23T09:53:25.108Z,98501.78
2023-05-23T09:56:25.069Z,98502.50
2023-05-23T09:58:58.966Z,98506.63
2023-05-23T10:01:33.687Z,98507.91
2023-05-23T10:04:06.262Z,98509.69
2023-05-23T10:06:50.252Z,98501.28
2023-05-23T10:09:25.187Z,98498.63
2023-05-23T10:12:19.136Z,98497.25
2023-05-23T10:15:01.863Z,98498.81
2023-05-23T10:17:54.350Z,98484.38
2023-05-23T10:20:32.128Z,98483.84
2023-05-23T10:23:05.454Z,98481.31
2023-05-23T10:25:38.417Z,98488.41
2023-05-23T10:28:11.646Z,98483.84
2023-05-23T10:30:45.232Z,98481.97
2023-05-23T10:33:18.521Z,98478.34
2023-05-23T10:35:57.799Z,98478.22
2023-05-23T10:38:56.324Z,98484.78
2023-05-23T10:41:54.297Z,98489.75
2023-05-23T10:44:30.947Z,98483.88
2023-05-23T10:47:05.330Z,98489.03
2023-05-23T10:49:56.596Z,98475.84
2023-05-23T10:52:41.420Z,98474.44
2023-05-23T10:55:20.383Z,98469.44
2023-05-23T10:58:21.607Z,98465.56
2023-05-23T11:00:56.282Z,98465.13
2023-05-23T11:03:36.845Z,98476.06
2023-05-23T11:06:45.249Z,98467.97
2023-05-23T11:09:19.563Z,98472.31
2023-05-23T11:11:52.804Z,98473.06
2023-05-23T11:14:33.974Z,98469.00
2023-05-23T11:17:33.722Z,98466.09
2023-05-23T11:20:07.801Z,98472.09
2023-05-23T11:22:40.465Z,98468.69
2023-05-23T11:25:12.680Z,98455.44
2023-05-23T11:27:47.229Z,98455.00
2023-05-23T11:30:19.323Z,98470.09
2023-05-23T11:32:54.731Z,98468.63
2023-05-23T11:35:27.789Z,98468.84
2023-05-23T11:38:01.160Z,98477.50
2023-05-23T11:40:42.029Z,98472.31
2023-05-23T11:43:17.122Z,98475.84
2023-05-23T11:45:49.574Z,98468.78
2023-05-23T11:48:22.335Z,98460.25
2023-05-23T11:50:54.619Z,98468.44
2023-05-23T11:53:28.472Z,98469.91
2023-05-23T11:56:03.298Z,98466.47
2023-05-23T11:58:39.890Z,98464.88
2023-05-23T12:01:13.530Z,98474.25
2023-05-23T12:03:54.093Z,98462.97
2023-05-23T12:06:26.305Z,98464.16
2023-05-23T12:09:00.280Z,98465.72
2023-05-23T12:11:32.690Z,98462.91
2023-05-23T12:14:07.018Z,98458.16
2023-05-23T12:16:39.591Z,98460.41
2023-05-23T12:19:12.962Z,98462.56
2023-05-23T12:21:47.998Z,98469.34
2023-05-23T12:24:22.804Z,98460.09
2023-05-23T12:26:58.594Z,98458.69
2023-05-23T12:29:35.089Z,98462.78
2023-05-23T12:32:07.820Z,98463.66
2023-05-23T12:34:44.034Z,98464.84
2023-05-23T12:37:20.570Z,98456.19
2023-05-23T12:39:52.812Z,98457.44
2023-05-23T12:42:25.412Z,98463.00
2023-05-23T12:44:58.365Z,98454.88
2023-05-23T12:47:31.466Z,98459.03
2023-05-23T12:50:04.216Z,98452.56
2023-05-23T12:52:37.594Z,98452.78
2023-05-23T12:55:10.755Z,98450.97
2023-05-23T12:57:43.340Z,98448.84
2023-05-23T13:00:15.666Z,98443.91
2023-05-23T13:02:48.455Z,98445.13
2023-05-23T13:05:22.440Z,98438.72
2023-05-23T13:07:55.919Z,98446.81
2023-05-23T13:10:30.145Z,98441.22
2023-05-23T13:13:04.706Z,98442.97
2023-05-23T13:15:37.347Z,98444.44
2023-05-23T13:18:10.039Z,98445.75
2023-05-23T13:20:42.415Z,98433.88
2023-05-23T13:23:14.923Z,98446.28
2023-05-23T13:25:46.881Z,98438.38
2023-05-23T13:28:20.154Z,98435.06
2023-05-23T13:30:52.172Z,98430.63
2023-05-23T13:33:25.247Z,98434.06
2023-05-23T13:35:57.725Z,98430.88
2023-05-23T13:38:32.368Z,98428.50
2023-05-23T13:41:04.335Z,98429.34
2023-05-23T13:43:37.200Z,98430.34
2023-05-23T13:46:09.212Z,98438.31
2023-05-23T13:48:42.063Z,98433.59
2023-05-23T13:51:14.477Z,98431.09
2023-05-23T13:53:46.868Z,98428.88
2023-05-23T13:56:18.876Z,98417.88
2023-05-23T13:58:51.451Z,98434.88
2023-05-23T14:01:24.762Z,98432.31
2023-05-23T14:03:57.123Z,98419.94
2023-05-23T14:06:29.722Z,98422.38
2023-05-23T14:09:01.741Z,98426.78
2023-05-23T14:11:34.370Z,98419.50
2023-05-23T14:14:06.400Z,98420.91
2023-05-23T14:16:39.050Z,98417.31
2023-05-23T14:19:11.066Z,98418.00
2023-05-23T14:21:44.953Z,98412.16
2023-05-23T14:24:17.637Z,98413.78
2023-05-23T14:26:50.520Z,98422.28
2023-05-23T14:29:22.592Z,98423.56
2023-05-23T14:31:55.353Z,98413.88
2023-05-23T14:34:27.739Z,98415.50
2023-05-23T14:37:01.239Z,98425.16
2023-05-23T14:39:33.362Z,98415.72
2023-05-23T14:42:06.744Z,98425.41
2023-05-23T14:44:38.689Z,98419.50
2023-05-23T14:47:11.267Z,98426.41
2023-05-23T14:49:43.252Z,98430.66
2023-05-23T14:52:17.801Z,98428.84
2023-05-23T14:54:49.829Z,98421.59
2023-05-23T14:57:22.924Z,98427.78
2023-05-23T14:59:54.904Z,98428.03
2023-05-23T15:02:30.167Z,98422.75
2023-05-23T15:05:02.296Z,98421.44
2023-05-23T15:07:35.742Z,98421.41
2023-05-23T15:10:09.117Z,98421.81
2023-05-23T15:12:42.748Z,98409.00
2023-05-23T15:15:16.808Z,98414.63
2023-05-23T15:17:51.323Z,98418.69
2023-05-23T15:20:23.414Z,98412.94
2023-05-23T15:22:56.275Z,98414.84
2023-05-23T15:25:46.478Z,98416.97
2023-05-23T15:28:20.844Z,98406.06
2023-05-23T15:30:54.662Z,98414.72
2023-05-23T15:33:27.329Z,98419.25
2023-05-23T15:36:00.183Z,98412.00
2023-05-23T15:38:32.767Z,98411.41
2023-05-23T15:41:06.285Z,98413.75
2023-05-23T15:43:39.459Z,98424.00
2023-05-23T15:46:11.852Z,98418.75
2023-05-23T15:48:43.794Z,98427.06
2023-05-23T15:51:19.557Z,98418.59
2023-05-23T15:56:28.351Z,98420.19
2023-05-23T15:59:00.329Z,98430.66
2023-05-23T16:04:25.551Z,98424.50
2023-05-23T16:06:57.472Z,98419.13
2023-05-23T16:09:29.986Z,98428.94
2023-05-23T16:12:02.389Z,98417.56
2023-05-23T16:14:34.353Z,98417.00
2023-05-23T16:17:08.020Z,98429.97
2023-05-23T16:19:40.081Z,98421.94
2023-05-23T16:22:12.695Z,98422.19
2023-05-23T16:24:44.635Z,98422.78
2023-05-23T16:27:17.625Z,98420.09
2023-05-23T16:29:49.959Z,98430.53
2023-05-23T16:32:22.548Z,98420.00
2023-05-23T16:34:54.872Z,98423.69
2023-05-23T16:37:27.787Z,98420.56
2023-05-23T16:39:59.867Z,98411.84
2023-05-23T16:42:32.487Z,98412.50
2023-05-23T16:45:05.593Z,98414.06
2023-05-23T16:47:38.330Z,98415.09
2023-05-23T16:50:11.076Z,98416.53
2023-05-23T16:52:45.060Z,98416.75
2023-05-23T16:55:17.381Z,98412.38
2023-05-23T16:57:49.867Z,98421.88
2023-05-23T17:00:21.914Z,98424.03
2023-05-23T17:02:54.651Z,98416.09
2023-05-23T17:05:26.629Z,98412.88
2023-05-23T17:07:59.531Z,98417.22
2023-05-23T17:10:31.928Z,98416.19
2023-05-23T17:13:04.700Z,98419.38
2023-05-23T17:15:37.032Z,98424.84
2023-05-23T17:18:09.709Z,98421.22
2023-05-23T17:20:41.648Z,98426.16
2023-05-23T17:23:14.544Z,98424.94
2023-05-23T17:25:46.563Z,98419.13
2023-05-23T17:28:19.511Z,98429.69
2023-05-23T17:30:53.054Z,98423.75
2023-05-23T17:33:25.667Z,98428.38
2023-05-23T17:35:57.648Z,98424.72
2023-05-23T17:38:30.153Z,98408.19
2023-05-23T17:41:02.071Z,98418.38
2023-05-23T17:43:35.005Z,98415.09
2023-05-23T17:46:07.455Z,98420.06
2023-05-23T17:51:18.127Z,98423.88
2023-05-23T17:53:53.895Z,98429.03
2023-05-23T17:56:25.935Z,98430.41
2023-05-23T17:58:58.441Z,98431.47
2023-05-23T18:01:30.455Z,98430.09
2023-05-23T18:04:03.113Z,98425.72
2023-05-23T18:06:35.740Z,98436.28
2023-05-23T18:09:10.018Z,98430.72
2023-05-23T18:11:42.849Z,98433.81
2023-05-23T18:14:15.771Z,98435.00
2023-05-23T18:16:47.720Z,98433.50
2023-05-23T18:19:20.532Z,98443.44
2023-05-23T18:21:52.520Z,98444.72
2023-05-23T18:24:24.915Z,98446.84
2023-05-23T18:26:57.958Z,98454.78
2023-05-23T18:29:30.945Z,98456.59
2023-05-23T18:32:03.540Z,98461.22
2023-05-23T18:34:36.171Z,98450.94
2023-05-23T18:37:08.211Z,98456.69
2023-05-23T18:39:40.594Z,98458.41
2023-05-23T18:42:12.542Z,98461.25
2023-05-23T18:44:44.962Z,98458.13
2023-05-23T18:47:16.954Z,98456.25
2023-05-23T18:49:50.050Z,98455.94
2023-05-23T18:52:22.012Z,98463.25
2023-05-23T18:54:54.772Z,98464.72
2023-05-23T18:57:27.141Z,98462.75
2023-05-23T18:59:59.811Z,98466.13
2023-05-23T19:02:32.192Z,98467.88
2023-05-23T19:05:05.836Z,98469.31
2023-05-23T19:07:38.073Z,98473.44
2023-05-23T19:10:12.344Z,98478.34
2023-05-23T19:12:44.428Z,98476.00
2023-05-23T19:15:17.015Z,98486.94
2023-05-23T19:17:49.376Z,98492.44
2023-05-23T19:20:22.381Z,98497.88
2023-05-23T19:22:54.629Z,98497.34
2023-05-23T19:25:27.290Z,98494.78
2023-05-23T19:27:59.259Z,98504.03
2023-05-23T19:30:31.661Z,98508.00
2023-05-23T19:33:04.490Z,98512.66
2023-05-23T19:35:37.591Z,98513.53
2023-05-23T19:38:09.599Z,98508.00
2023-05-23T19:40:42.710Z,98509.94
2023-05-23T19:43:14.982Z,98520.34
2023-05-23T19:45:47.591Z,98521.25
2023-05-23T19:48:19.660Z,98518.22
2023-05-23T19:50:52.415Z,98527.72
2023-05-23T19:53:24.467Z,98527.28
2023-05-23T19:55:57.842Z,98535.28
2023-05-23T19:58:29.974Z,98535.75
2023-05-23T20:01:03.340Z,98536.78
2023-05-23T20:03:35.366Z,98542.88
2023-05-23T20:06:07.670Z,98542.25
2023-05-23T20:08:39.626Z,98549.47
2023-05-23T20:11:12.877Z,98546.25
2023-05-23T20:13:44.922Z,98542.44
2023-05-23T20:16:17.959Z,98557.59
2023-05-23T20:18:50.013Z,98556.19
2023-05-23T20:21:22.801Z,98554.19
2023-05-23T20:23:54.775Z,98557.78
2023-05-23T20:26:27.651Z,98561.41
2023-05-23T20:28:59.921Z,98571.09
2023-05-23T20:31:32.658Z,98572.75
2023-05-23T20:34:04.660Z,98576.13
2023-05-23T20:36:37.431Z,98574.34
2023-05-23T20:39:10.372Z,98582.44
2023-05-23T20:41:43.704Z,98578.28
2023-05-23T20:44:18.501Z,98577.97
2023-05-23T20:46:51.935Z,98575.53
2023-05-23T20:49:24.808Z,98581.03
2023-05-23T20:51:57.931Z,98583.00
2023-05-23T20:54:29.888Z,98590.97
2023-05-23T20:57:02.829Z,98586.50
2023-05-23T20:59:34.817Z,98588.09
2023-05-23T21:02:08.375Z,98588.31
2023-05-23T21:04:40.944Z,98595.09
2023-05-23T21:07:13.831Z,98587.41
2023-05-23T21:09:46.382Z,98595.38
2023-05-23T21:12:18.927Z,98599.53
2023-05-23T21:14:50.922Z,98593.56
2023-05-23T21:17:24.106Z,98596.97
2023-05-23T21:19:56.074Z,98601.16
2023-05-23T21:22:28.725Z,98602.53
2023-05-23T21:25:00.629Z,98601.97
2023-05-23T21:27:33.119Z,98611.28
2023-05-23T21:30:06.592Z,98604.59
2023-05-23T21:32:39.188Z,98601.88
2023-05-23T21:35:11.388Z,98611.78
2023-05-23T21:37:43.935Z,98620.44
2023-05-23T21:40:15.962Z,98608.94
2023-05-23T21:42:48.568Z,98619.13
2023-05-23T21:45:20.580Z,98614.09
2023-05-23T21:47:53.140Z,98620.66
2023-05-23T21:50:25.092Z,98610.22
2023-05-23T21:56:05.986Z,98611.16
2023-05-23T21:58:38.710Z,98611.31
2023-05-23T22:01:10.877Z,98619.38
2023-05-23T22:03:43.532Z,98621.38
2023-05-23T22:06:16.301Z,98628.09
2023-05-23T22:08:48.810Z,98617.50
2023-05-23T22:11:21.718Z,98617.44
2023-05-23T22:13:54.370Z,98620.75
2023-05-23T22:16:26.661Z,98613.66
2023-05-23T22:18:59.794Z,98613.06
2023-05-23T22:21:31.953Z,98620.41
2023-05-23T22:24:05.325Z,98620.47
2023-05-23T22:26:37.395Z,98628.53
2023-05-23T22:29:09.942Z,98626.53
2023-05-23T22:31:42.432Z,98628.66
2023-05-23T22:34:15.485Z,98627.94
2023-05-23T22:36:47.926Z,98623.25
2023-05-23T22:39:20.925Z,98625.84
2023-05-23T22:41:52.841Z,98627.34
2023-05-23T22:44:25.472Z,98632.13
2023-05-23T22:46:59.751Z,98628.81
2023-05-23T22:49:32.941Z,98626.91
2023-05-23T22:52:05.279Z,98621.13
2023-05-23T22:54:37.892Z,98623.91
2023-05-23T22:57:09.825Z,98624.78
2023-05-23T22:59:42.330Z,98622.06
2023-05-23T23:02:14.269Z,98618.81
2023-05-23T23:04:48.539Z,98626.28
2023-05-23T23:07:20.645Z,98624.25
2023-05-23T23:09:53.550Z,98616.22
2023-05-23T23:12:25.465Z,98619.59
2023-05-23T23:14:58.036Z,98607.53
2023-05-23T23:17:30.009Z,98606.28
2023-05-23T23:20:04.574Z,98609.72
2023-05-23T23:22:36.591Z,98609.84
2023-05-23T23:25:12.806Z,98596.09
2023-05-23T23:27:45.282Z,98604.22
2023-05-23T23:30:18.148Z,98596.22
2023-05-23T23:32:50.233Z,98591.03
2023-05-23T23:35:22.564Z,98600.25
2023-05-23T23:37:54.861Z,98595.63
2023-05-23T23:40:27.450Z,98597.66
2023-05-23T23:42:59.766Z,98593.75
2023-05-23T23:45:32.294Z,98597.75
2023-05-23T23:48:04.382Z,98595.25
2023-05-23T23:50:37.500Z,98589.44
2023-05-23T23:53:09.484Z,98591.47
2023-05-23T23:55:41.993Z,98588.09
2023-05-23T23:58:13.888Z,98592.78
